sensor_id;sensor_type;location;lat;lon;timestamp;temperature;humidity
13711;DHT22;6927;51.256;9.410;2023-04-24T00:01:39;11.20;99.90
13711;DHT22;6927;51.256;9.410;2023-04-24T00:04:06;11.20;99.90
13711;DHT22;6927;51.256;9.410;2023-04-24T00:06:32;11.10;99.90
13711;DHT22;6927;51.256;9.410;2023-04-24T00:09:00;11.10;99.90
13711;DHT22;6927;51.256;9.410;2023-04-24T00:11:26;11.10;99.90
13711;DHT22;6927;51.256;9.410;2023-04-24T00:13:52;11.10;99.90
13711;DHT22;6927;51.256;9.410;2023-04-24T00:16:18;11.00;99.90
13711;DHT22;6927;51.256;9.410;2023-04-24T00:18:43;11.10;99.90
13711;DHT22;6927;51.256;9.410;2023-04-24T00:21:10;11.10;99.90
13711;DHT22;6927;51.256;9.410;2023-04-24T00:23:36;11.10;99.90
13711;DHT22;6927;51.256;9.410;2023-04-24T00:26:02;11.00;99.90
13711;DHT22;6927;51.256;9.410;2023-04-24T00:28:27;11.00;99.90
13711;DHT22;6927;51.256;9.410;2023-04-24T00:30:53;11.00;99.90
13711;DHT22;6927;51.256;9.410;2023-04-24T00:33:19;11.00;99.90
13711;DHT22;6927;51.256;9.410;2023-04-24T00:35:45;11.00;99.90
13711;DHT22;6927;51.256;9.410;2023-04-24T00:38:10;11.00;99.90
13711;DHT22;6927;51.256;9.410;2023-04-24T00:40:36;11.00;99.90
13711;DHT22;6927;51.256;9.410;2023-04-24T00:43:01;11.00;99.90
13711;DHT22;6927;51.256;9.410;2023-04-24T00:45:27;11.00;99.90
13711;DHT22;6927;51.256;9.410;2023-04-24T00:47:53;10.90;99.90
13711;DHT22;6927;51.256;9.410;2023-04-24T00:50:18;10.90;99.90
13711;DHT22;6927;51.256;9.410;2023-04-24T00:52:45;10.80;99.90
13711;DHT22;6927;51.256;9.410;2023-04-24T00:55:10;10.80;99.90
13711;DHT22;6927;51.256;9.410;2023-04-24T00:57:37;10.80;99.90
13711;DHT22;6927;51.256;9.410;2023-04-24T01:00:04;10.70;99.90
13711;DHT22;6927;51.256;9.410;2023-04-24T01:02:31;10.70;99.90
13711;DHT22;6927;51.256;9.410;2023-04-24T01:05:00;10.60;99.90
13711;DHT22;6927;51.256;9.410;2023-04-24T01:07:26;10.50;99.90
13711;DHT22;6927;51.256;9.410;2023-04-24T01:09:52;10.50;99.90
13711;DHT22;6927;51.256;9.410;2023-04-24T01:12:19;10.50;99.90
13711;DHT22;6927;51.256;9.410;2023-04-24T01:14:45;10.40;99.90
13711;DHT22;6927;51.256;9.410;2023-04-24T01:17:10;10.40;99.90
13711;DHT22;6927;51.256;9.410;2023-04-24T01:19:36;10.40;99.90
13711;DHT22;6927;51.256;9.410;2023-04-24T01:22:03;10.40;99.90
13711;DHT22;6927;51.256;9.410;2023-04-24T01:24:29;10.40;99.90
13711;DHT22;6927;51.256;9.410;2023-04-24T01:26:54;10.50;99.90
13711;DHT22;6927;51.256;9.410;2023-04-24T01:29:20;10.50;99.90
13711;DHT22;6927;51.256;9.410;2023-04-24T01:31:46;10.60;99.90
13711;DHT22;6927;51.256;9.410;2023-04-24T01:34:12;10.70;99.90
13711;DHT22;6927;51.256;9.410;2023-04-24T01:36:38;10.80;99.90
13711;DHT22;6927;51.256;9.410;2023-04-24T01:39:04;10.80;99.90
13711;DHT22;6927;51.256;9.410;2023-04-24T01:41:30;10.90;99.90
13711;DHT22;6927;51.256;9.410;2023-04-24T01:43:57;10.90;99.90
13711;DHT22;6927;51.256;9.410;2023-04-24T01:46:24;10.90;99.90
13711;DHT22;6927;51.256;9.410;2023-04-24T01:48:51;10.90;99.90
13711;DHT22;6927;51.256;9.410;2023-04-24T01:51:17;11.00;99.90
13711;DHT22;6927;51.256;9.410;2023-04-24T01:53:43;11.00;99.90
13711;DHT22;6927;51.256;9.410;2023-04-24T01:56:08;11.00;99.90
13711;DHT22;6927;51.256;9.410;2023-04-24T01:58:34;11.00;99.90
13711;DHT22;6927;51.256;9.410;2023-04-24T02:01:00;11.00;99.90
13711;DHT22;6927;51.256;9.410;2023-04-24T02:03:26;11.00;99.90
13711;DHT22;6927;51.256;9.410;2023-04-24T02:05:52;11.10;99.90
13711;DHT22;6927;51.256;9.410;2023-04-24T02:08:17;11.10;99.90
13711;DHT22;6927;51.256;9.410;2023-04-24T02:10:43;11.20;99.90
13711;DHT22;6927;51.256;9.410;2023-04-24T02:13:09;11.20;99.90
13711;DHT22;6927;51.256;9.410;2023-04-24T02:15:35;11.20;99.90
13711;DHT22;6927;51.256;9.410;2023-04-24T02:18:01;11.20;99.90
13711;DHT22;6927;51.256;9.410;2023-04-24T02:20:27;11.20;99.90
13711;DHT22;6927;51.256;9.410;2023-04-24T02:22:52;11.20;99.90
13711;DHT22;6927;51.256;9.410;2023-04-24T02:25:18;11.20;99.90
13711;DHT22;6927;51.256;9.410;2023-04-24T02:27:43;11.20;99.90
13711;DHT22;6927;51.256;9.410;2023-04-24T02:30:09;11.20;99.90
13711;DHT22;6927;51.256;9.410;2023-04-24T02:32:35;11.20;99.90
13711;DHT22;6927;51.256;9.410;2023-04-24T02:35:01;11.20;99.90
13711;DHT22;6927;51.256;9.410;2023-04-24T02:37:26;11.10;99.90
13711;DHT22;6927;51.256;9.410;2023-04-24T02:39:52;11.10;99.90
13711;DHT22;6927;51.256;9.410;2023-04-24T02:42:17;11.20;99.90
13711;DHT22;6927;51.256;9.410;2023-04-24T02:44:43;11.20;99.90
13711;DHT22;6927;51.256;9.410;2023-04-24T02:47:08;11.20;99.90
13711;DHT22;6927;51.256;9.410;2023-04-24T02:49:34;11.20;99.90
13711;DHT22;6927;51.256;9.410;2023-04-24T02:51:59;11.20;99.90
13711;DHT22;6927;51.256;9.410;2023-04-24T02:54:25;11.10;99.90
13711;DHT22;6927;51.256;9.410;2023-04-24T02:56:51;11.20;99.90
13711;DHT22;6927;51.256;9.410;2023-04-24T02:59:16;11.20;99.90
13711;DHT22;6927;51.256;9.410;2023-04-24T03:01:42;11.20;99.90
13711;DHT22;6927;51.256;9.410;2023-04-24T03:04:07;11.20;99.90
13711;DHT22;6927;51.256;9.410;2023-04-24T03:06:33;11.20;99.90
13711;DHT22;6927;51.256;9.410;2023-04-24T03:09:00;11.10;99.90
13711;DHT22;6927;51.256;9.410;2023-04-24T03:11:26;11.10;99.90
13711;DHT22;6927;51.256;9.410;2023-04-24T03:13:51;11.10;99.90
13711;DHT22;6927;51.256;9.410;2023-04-24T03:16:17;11.10;99.90
13711;DHT22;6927;51.256;9.410;2023-04-24T03:18:42;11.10;99.90
13711;DHT22;6927;51.256;9.410;2023-04-24T03:21:08;11.10;99.90
13711;DHT22;6927;51.256;9.410;2023-04-24T03:23:34;11.00;99.90
13711;DHT22;6927;51.256;9.410;2023-04-24T03:25:59;11.00;99.90
13711;DHT22;6927;51.256;9.410;2023-04-24T03:28:25;10.90;99.90
13711;DHT22;6927;51.256;9.410;2023-04-24T03:30:50;10.90;99.90
13711;DHT22;6927;51.256;9.410;2023-04-24T03:33:16;10.90;99.90
13711;DHT22;6927;51.256;9.410;2023-04-24T03:35:42;10.90;99.90
13711;DHT22;6927;51.256;9.410;2023-04-24T03:38:07;10.90;99.90
13711;DHT22;6927;51.256;9.410;2023-04-24T03:40:33;10.90;99.90
13711;DHT22;6927;51.256;9.410;2023-04-24T03:42:59;10.90;99.90
13711;DHT22;6927;51.256;9.410;2023-04-24T03:45:24;10.90;99.90
13711;DHT22;6927;51.256;9.410;2023-04-24T03:47:50;10.90;99.90
13711;DHT22;6927;51.256;9.410;2023-04-24T03:50:15;10.90;99.90
13711;DHT22;6927;51.256;9.410;2023-04-24T03:52:41;10.80;99.90
13711;DHT22;6927;51.256;9.410;2023-04-24T03:55:07;10.80;99.90
13711;DHT22;6927;51.256;9.410;2023-04-24T03:57:32;10.90;99.90
13711;DHT22;6927;51.256;9.410;2023-04-24T03:59:58;10.90;99.90
13711;DHT22;6927;51.256;9.410;2023-04-24T04:02:23;10.90;99.90
13711;DHT22;6927;51.256;9.410;2023-04-24T04:04:49;10.80;99.90
13711;DHT22;6927;51.256;9.410;2023-04-24T04:07:15;10.80;99.90
13711;DHT22;6927;51.256;9.410;2023-04-24T04:09:40;10.80;99.90
13711;DHT22;6927;51.256;9.410;2023-04-24T04:12:06;10.70;99.90
13711;DHT22;6927;51.256;9.410;2023-04-24T04:14:31;10.60;99.90
13711;DHT22;6927;51.256;9.410;2023-04-24T04:16:57;10.60;99.90
13711;DHT22;6927;51.256;9.410;2023-04-24T04:19:22;10.60;99.90
13711;DHT22;6927;51.256;9.410;2023-04-24T04:21:48;10.60;99.90
13711;DHT22;6927;51.256;9.410;2023-04-24T04:24:18;10.60;99.90
13711;DHT22;6927;51.256;9.410;2023-04-24T04:26:45;10.60;99.90
13711;DHT22;6927;51.256;9.410;2023-04-24T04:29:13;10.60;99.90
13711;DHT22;6927;51.256;9.410;2023-04-24T04:31:38;10.60;99.90
13711;DHT22;6927;51.256;9.410;2023-04-24T04:34:04;10.60;99.90
13711;DHT22;6927;51.256;9.410;2023-04-24T04:36:29;10.60;99.90
13711;DHT22;6927;51.256;9.410;2023-04-24T04:38:55;10.60;99.90
13711;DHT22;6927;51.256;9.410;2023-04-24T04:41:22;10.60;99.90
13711;DHT22;6927;51.256;9.410;2023-04-24T04:43:47;10.50;99.90
13711;DHT22;6927;51.256;9.410;2023-04-24T04:46:13;10.50;99.90
13711;DHT22;6927;51.256;9.410;2023-04-24T04:48:38;10.50;99.90
13711;DHT22;6927;51.256;9.410;2023-04-24T04:51:05;10.40;99.90
13711;DHT22;6927;51.256;9.410;2023-04-24T04:53:30;10.50;99.90
13711;DHT22;6927;51.256;9.410;2023-04-24T04:55:56;10.40;99.90
13711;DHT22;6927;51.256;9.410;2023-04-24T04:58:22;10.50;99.90
13711;DHT22;6927;51.256;9.410;2023-04-24T05:00:47;10.50;99.90
13711;DHT22;6927;51.256;9.410;2023-04-24T05:03:13;10.50;99.90
13711;DHT22;6927;51.256;9.410;2023-04-24T05:05:39;10.50;99.90
13711;DHT22;6927;51.256;9.410;2023-04-24T05:08:07;10.50;99.90
13711;DHT22;6927;51.256;9.410;2023-04-24T05:10:33;10.50;99.90
13711;DHT22;6927;51.256;9.410;2023-04-24T05:12:58;10.60;99.90
13711;DHT22;6927;51.256;9.410;2023-04-24T05:15:24;10.50;99.90
13711;DHT22;6927;51.256;9.410;2023-04-24T05:17:49;10.60;99.90
13711;DHT22;6927;51.256;9.410;2023-04-24T05:20:15;10.60;99.90
13711;DHT22;6927;51.256;9.410;2023-04-24T05:22:40;10.60;99.90
13711;DHT22;6927;51.256;9.410;2023-04-24T05:25:06;10.50;99.90
13711;DHT22;6927;51.256;9.410;2023-04-24T05:27:33;10.50;99.90
13711;DHT22;6927;51.256;9.410;2023-04-24T05:29:58;10.40;99.90
13711;DHT22;6927;51.256;9.410;2023-04-24T05:32:24;10.30;99.90
13711;DHT22;6927;51.256;9.410;2023-04-24T05:34:49;10.20;99.90
13711;DHT22;6927;51.256;9.410;2023-04-24T05:37:15;10.10;99.90
13711;DHT22;6927;51.256;9.410;2023-04-24T05:39:40;10.00;99.90
13711;DHT22;6927;51.256;9.410;2023-04-24T05:42:06;10.00;99.90
13711;DHT22;6927;51.256;9.410;2023-04-24T05:44:32;9.90;99.90
13711;DHT22;6927;51.256;9.410;2023-04-24T05:46:58;9.90;99.90
13711;DHT22;6927;51.256;9.410;2023-04-24T05:49:23;10.00;99.90
13711;DHT22;6927;51.256;9.410;2023-04-24T05:51:49;10.00;99.90
13711;DHT22;6927;51.256;9.410;2023-04-24T05:54:14;10.00;99.90
13711;DHT22;6927;51.256;9.410;2023-04-24T05:56:40;10.00;1.00
13711;DHT22;6927;51.256;9.410;2023-04-24T05:59:06;10.10;1.00
13711;DHT22;6927;51.256;9.410;2023-04-24T06:01:33;10.20;1.00
13711;DHT22;6927;51.256;9.410;2023-04-24T06:03:58;10.30;72.20
13711;DHT22;6927;51.256;9.410;2023-04-24T06:06:24;10.30;99.90
13711;DHT22;6927;51.256;9.410;2023-04-24T06:08:51;10.30;1.00
13711;DHT22;6927;51.256;9.410;2023-04-24T06:11:16;10.40;99.90
13711;DHT22;6927;51.256;9.410;2023-04-24T06:13:42;10.40;1.00
13711;DHT22;6927;51.256;9.410;2023-04-24T06:16:08;10.50;94.40
13711;DHT22;6927;51.256;9.410;2023-04-24T06:18:33;10.50;1.00
13711;DHT22;6927;51.256;9.410;2023-04-24T06:20:59;10.50;1.00
13711;DHT22;6927;51.256;9.410;2023-04-24T06:23:24;10.60;1.00
13711;DHT22;6927;51.256;9.410;2023-04-24T06:25:51;10.70;1.00
13711;DHT22;6927;51.256;9.410;2023-04-24T06:28:16;10.80;1.00
13711;DHT22;6927;51.256;9.410;2023-04-24T06:30:42;11.00;1.00
13711;DHT22;6927;51.256;9.410;2023-04-24T06:33:08;11.10;1.00
13711;DHT22;6927;51.256;9.410;2023-04-24T06:35:34;11.20;1.00
13711;DHT22;6927;51.256;9.410;2023-04-24T06:37:59;11.40;99.90
13711;DHT22;6927;51.256;9.410;2023-04-24T06:40:25;11.60;99.90
13711;DHT22;6927;51.256;9.410;2023-04-24T06:42:51;11.90;1.00
13711;DHT22;6927;51.256;9.410;2023-04-24T06:45:16;12.10;99.90
13711;DHT22;6927;51.256;9.410;2023-04-24T06:47:42;12.10;1.00
13711;DHT22;6927;51.256;9.410;2023-04-24T06:50:08;12.10;99.90
13711;DHT22;6927;51.256;9.410;2023-04-24T06:52:34;12.90;99.90
13711;DHT22;6927;51.256;9.410;2023-04-24T06:55:00;13.10;99.90
13711;DHT22;6927;51.256;9.410;2023-04-24T06:57:26;12.90;99.90
13711;DHT22;6927;51.256;9.410;2023-04-24T06:59:53;12.80;99.90
13711;DHT22;6927;51.256;9.410;2023-04-24T07:02:18;12.70;99.90
13711;DHT22;6927;51.256;9.410;2023-04-24T07:04:44;13.00;99.90
13711;DHT22;6927;51.256;9.410;2023-04-24T07:07:12;13.90;99.90
13711;DHT22;6927;51.256;9.410;2023-04-24T07:09:39;14.40;99.90
13711;DHT22;6927;51.256;9.410;2023-04-24T07:12:10;14.40;99.90
13711;DHT22;6927;51.256;9.410;2023-04-24T07:14:36;14.30;69.30
13711;DHT22;6927;51.256;9.410;2023-04-24T07:17:03;14.30;59.30
13711;DHT22;6927;51.256;9.410;2023-04-24T07:19:29;15.30;55.50
13711;DHT22;6927;51.256;9.410;2023-04-24T07:21:55;15.60;8.60
13711;DHT22;6927;51.256;9.410;2023-04-24T07:24:20;14.90;1.00
13711;DHT22;6927;51.256;9.410;2023-04-24T07:26:46;14.00;1.00
13711;DHT22;6927;51.256;9.410;2023-04-24T07:29:12;12.90;1.00
13711;DHT22;6927;51.256;9.410;2023-04-24T07:31:38;12.40;4.00
13711;DHT22;6927;51.256;9.410;2023-04-24T07:34:06;12.20;72.30
13711;DHT22;6927;51.256;9.410;2023-04-24T07:36:32;13.50;1.00
13711;DHT22;6927;51.256;9.410;2023-04-24T07:38:57;14.40;1.00
13711;DHT22;6927;51.256;9.410;2023-04-24T07:41:23;14.70;1.00
13711;DHT22;6927;51.256;9.410;2023-04-24T07:43:49;14.80;1.00
13711;DHT22;6927;51.256;9.410;2023-04-24T07:46:15;14.40;1.00
13711;DHT22;6927;51.256;9.410;2023-04-24T07:48:41;15.00;1.00
13711;DHT22;6927;51.256;9.410;2023-04-24T07:51:06;15.80;1.00
13711;DHT22;6927;51.256;9.410;2023-04-24T07:53:35;15.80;1.00
13711;DHT22;6927;51.256;9.410;2023-04-24T07:56:00;15.80;1.00
13711;DHT22;6927;51.256;9.410;2023-04-24T07:58:26;15.80;1.00
13711;DHT22;6927;51.256;9.410;2023-04-24T08:00:52;16.00;1.00
13711;DHT22;6927;51.256;9.410;2023-04-24T08:03:18;15.80;1.00
13711;DHT22;6927;51.256;9.410;2023-04-24T08:05:45;15.00;1.00
13711;DHT22;6927;51.256;9.410;2023-04-24T08:08:10;14.10;1.00
13711;DHT22;6927;51.256;9.410;2023-04-24T08:10:36;13.60;1.00
13711;DHT22;6927;51.256;9.410;2023-04-24T08:13:02;13.10;1.00
13711;DHT22;6927;51.256;9.410;2023-04-24T08:15:28;12.80;1.00
13711;DHT22;6927;51.256;9.410;2023-04-24T08:17:53;12.80;1.00
13711;DHT22;6927;51.256;9.410;2023-04-24T08:20:19;13.40;1.00
13711;DHT22;6927;51.256;9.410;2023-04-24T08:22:45;13.60;1.00
13711;DHT22;6927;51.256;9.410;2023-04-24T08:25:26;13.60;1.00
13711;DHT22;6927;51.256;9.410;2023-04-24T08:27:57;13.00;1.00
13711;DHT22;6927;51.256;9.410;2023-04-24T08:30:26;12.70;1.00
13711;DHT22;6927;51.256;9.410;2023-04-24T08:32:54;12.60;1.00
13711;DHT22;6927;51.256;9.410;2023-04-24T08:35:20;12.50;1.00
13711;DHT22;6927;51.256;9.410;2023-04-24T08:37:46;12.50;1.00
13711;DHT22;6927;51.256;9.410;2023-04-24T08:40:16;12.40;1.00
13711;DHT22;6927;51.256;9.410;2023-04-24T08:42:42;12.20;1.00
13711;DHT22;6927;51.256;9.410;2023-04-24T08:45:10;12.20;1.00
13711;DHT22;6927;51.256;9.410;2023-04-24T08:47:38;12.30;1.00
13711;DHT22;6927;51.256;9.410;2023-04-24T08:50:04;12.30;1.00
13711;DHT22;6927;51.256;9.410;2023-04-24T08:52:32;12.50;1.00
13711;DHT22;6927;51.256;9.410;2023-04-24T08:55:01;12.80;1.00
13711;DHT22;6927;51.256;9.410;2023-04-24T08:57:28;12.70;1.00
13711;DHT22;6927;51.256;9.410;2023-04-24T08:59:55;12.40;1.00
13711;DHT22;6927;51.256;9.410;2023-04-24T09:02:21;12.40;1.00
13711;DHT22;6927;51.256;9.410;2023-04-24T09:04:47;12.30;1.00
13711;DHT22;6927;51.256;9.410;2023-04-24T09:07:14;12.50;1.00
13711;DHT22;6927;51.256;9.410;2023-04-24T09:10:14;12.50;1.00
13711;DHT22;6927;51.256;9.410;2023-04-24T09:12:41;12.50;1.00
13711;DHT22;6927;51.256;9.410;2023-04-24T09:15:07;12.20;1.00
13711;DHT22;6927;51.256;9.410;2023-04-24T09:17:33;11.90;1.00
13711;DHT22;6927;51.256;9.410;2023-04-24T09:19:59;11.80;1.00
13711;DHT22;6927;51.256;9.410;2023-04-24T09:22:25;11.50;16.50
13711;DHT22;6927;51.256;9.410;2023-04-24T09:25:03;11.40;99.90
13711;DHT22;6927;51.256;9.410;2023-04-24T09:27:29;11.50;99.90
13711;DHT22;6927;51.256;9.410;2023-04-24T09:29:56;12.00;99.90
13711;DHT22;6927;51.256;9.410;2023-04-24T09:32:23;12.60;99.90
13711;DHT22;6927;51.256;9.410;2023-04-24T09:35:20;12.70;83.90
13711;DHT22;6927;51.256;9.410;2023-04-24T09:37:46;12.40;65.10
13711;DHT22;6927;51.256;9.410;2023-04-24T09:40:47;12.20;25.60
13711;DHT22;6927;51.256;9.410;2023-04-24T09:43:44;11.90;34.50
13711;DHT22;6927;51.256;9.410;2023-04-24T09:49:16;11.50;12.00
13711;DHT22;6927;51.256;9.410;2023-04-24T09:51:45;11.40;27.80
13711;DHT22;6927;51.256;9.410;2023-04-24T09:54:27;11.40;88.20
13711;DHT22;6927;51.256;9.410;2023-04-24T09:57:03;11.40;95.00
13711;DHT22;6927;51.256;9.410;2023-04-24T09:59:32;11.40;67.30
13711;DHT22;6927;51.256;9.410;2023-04-24T10:02:01;11.40;99.90
13711;DHT22;6927;51.256;9.410;2023-04-24T10:04:56;11.50;23.60
13711;DHT22;6927;51.256;9.410;2023-04-24T10:07:25;11.80;53.40
13711;DHT22;6927;51.256;9.410;2023-04-24T10:09:54;11.90;17.10
13711;DHT22;6927;51.256;9.410;2023-04-24T10:12:23;11.90;1.00
13711;DHT22;6927;51.256;9.410;2023-04-24T10:14:50;12.00;1.00
13711;DHT22;6927;51.256;9.410;2023-04-24T10:17:17;12.00;1.00
13711;DHT22;6927;51.256;9.410;2023-04-24T10:19:43;11.90;1.40
13711;DHT22;6927;51.256;9.410;2023-04-24T10:22:09;11.80;21.50
13711;DHT22;6927;51.256;9.410;2023-04-24T10:24:35;11.70;99.90
13711;DHT22;6927;51.256;9.410;2023-04-24T10:27:03;11.50;1.00
13711;DHT22;6927;51.256;9.410;2023-04-24T10:29:31;11.40;1.00
13711;DHT22;6927;51.256;9.410;2023-04-24T10:31:56;11.40;1.00
13711;DHT22;6927;51.256;9.410;2023-04-24T10:34:23;11.40;1.00
13711;DHT22;6927;51.256;9.410;2023-04-24T10:36:51;11.40;1.00
13711;DHT22;6927;51.256;9.410;2023-04-24T10:39:18;11.40;1.00
13711;DHT22;6927;51.256;9.410;2023-04-24T10:41:49;11.30;1.00
13711;DHT22;6927;51.256;9.410;2023-04-24T10:44:15;11.40;1.00
13711;DHT22;6927;51.256;9.410;2023-04-24T10:46:46;11.20;99.90
13711;DHT22;6927;51.256;9.410;2023-04-24T10:49:14;11.30;99.90
13711;DHT22;6927;51.256;9.410;2023-04-24T10:51:49;11.10;1.00
13711;DHT22;6927;51.256;9.410;2023-04-24T10:54:28;11.00;1.00
13711;DHT22;6927;51.256;9.410;2023-04-24T10:59:47;10.30;99.90
13711;DHT22;6927;51.256;9.410;2023-04-24T11:02:16;10.00;81.30
13711;DHT22;6927;51.256;9.410;2023-04-24T11:04:42;9.80;9.00
13711;DHT22;6927;51.256;9.410;2023-04-24T11:07:09;9.70;1.00
13711;DHT22;6927;51.256;9.410;2023-04-24T11:09:35;9.80;1.00
13711;DHT22;6927;51.256;9.410;2023-04-24T11:12:10;9.80;1.00
13711;DHT22;6927;51.256;9.410;2023-04-24T11:14:59;9.90;99.90
13711;DHT22;6927;51.256;9.410;2023-04-24T11:17:36;10.30;1.00
13711;DHT22;6927;51.256;9.410;2023-04-24T11:20:17;10.60;99.90
13711;DHT22;6927;51.256;9.410;2023-04-24T11:22:43;11.40;1.00
13711;DHT22;6927;51.256;9.410;2023-04-24T11:25:09;11.70;1.00
13711;DHT22;6927;51.256;9.410;2023-04-24T11:27:44;12.10;1.00
13711;DHT22;6927;51.256;9.410;2023-04-24T11:30:11;12.00;1.00
13711;DHT22;6927;51.256;9.410;2023-04-24T11:32:42;11.70;1.00
13711;DHT22;6927;51.256;9.410;2023-04-24T11:35:13;11.20;99.90
13711;DHT22;6927;51.256;9.410;2023-04-24T11:37:40;11.10;99.90
13711;DHT22;6927;51.256;9.410;2023-04-24T11:40:09;11.40;99.90
13711;DHT22;6927;51.256;9.410;2023-04-24T11:42:39;11.60;99.90
13711;DHT22;6927;51.256;9.410;2023-04-24T11:45:12;11.50;99.90
13711;DHT22;6927;51.256;9.410;2023-04-24T11:47:39;11.30;99.90
13711;DHT22;6927;51.256;9.410;2023-04-24T11:50:08;11.30;44.40
13711;DHT22;6927;51.256;9.410;2023-04-24T11:52:43;11.40;99.90
13711;DHT22;6927;51.256;9.410;2023-04-24T11:58:06;11.40;91.60
13711;DHT22;6927;51.256;9.410;2023-04-24T12:00:55;11.60;26.40
13711;DHT22;6927;51.256;9.410;2023-04-24T12:04:13;11.70;99.90
13711;DHT22;6927;51.256;9.410;2023-04-24T12:07:01;11.70;99.90
13711;DHT22;6927;51.256;9.410;2023-04-24T12:09:57;11.30;99.90
13711;DHT22;6927;51.256;9.410;2023-04-24T12:12:27;11.00;99.90
13711;DHT22;6927;51.256;9.410;2023-04-24T12:14:57;10.90;1.00
13711;DHT22;6927;51.256;9.410;2023-04-24T12:17:31;10.80;1.00
13711;DHT22;6927;51.256;9.410;2023-04-24T12:20:06;10.90;53.40
13711;DHT22;6927;51.256;9.410;2023-04-24T12:22:56;10.90;92.30
13711;DHT22;6927;51.256;9.410;2023-04-24T12:25:26;10.70;91.70
13711;DHT22;6927;51.256;9.410;2023-04-24T12:28:12;10.90;99.90
13711;DHT22;6927;51.256;9.410;2023-04-24T12:30:43;11.30;93.80
13711;DHT22;6927;51.256;9.410;2023-04-24T12:33:20;11.40;1.00
13711;DHT22;6927;51.256;9.410;2023-04-24T12:35:48;11.20;1.00
13711;DHT22;6927;51.256;9.410;2023-04-24T12:38:27;11.40;1.00
13711;DHT22;6927;51.256;9.410;2023-04-24T12:41:03;11.50;36.60
13711;DHT22;6927;51.256;9.410;2023-04-24T12:43:29;11.60;52.80
13711;DHT22;6927;51.256;9.410;2023-04-24T12:45:55;11.70;56.70
13711;DHT22;6927;51.256;9.410;2023-04-24T12:48:21;11.70;27.20
13711;DHT22;6927;51.256;9.410;2023-04-24T12:50:47;11.80;1.00
13711;DHT22;6927;51.256;9.410;2023-04-24T12:53:14;11.70;1.00
13711;DHT22;6927;51.256;9.410;2023-04-24T12:55:40;11.60;1.00
13711;DHT22;6927;51.256;9.410;2023-04-24T12:58:05;11.60;30.30
13711;DHT22;6927;51.256;9.410;2023-04-24T13:00:31;11.60;2.00
13711;DHT22;6927;51.256;9.410;2023-04-24T13:02:57;11.70;16.00
13711;DHT22;6927;51.256;9.410;2023-04-24T13:05:23;11.90;9.00
13711;DHT22;6927;51.256;9.410;2023-04-24T13:07:48;12.00;1.00
13711;DHT22;6927;51.256;9.410;2023-04-24T13:10:14;12.10;1.00
13711;DHT22;6927;51.256;9.410;2023-04-24T13:12:40;12.20;1.00
13711;DHT22;6927;51.256;9.410;2023-04-24T13:15:06;12.10;27.60
13711;DHT22;6927;51.256;9.410;2023-04-24T13:17:32;12.10;72.50
13711;DHT22;6927;51.256;9.410;2023-04-24T13:19:58;12.00;25.00
13711;DHT22;6927;51.256;9.410;2023-04-24T13:22:24;12.00;1.00
13711;DHT22;6927;51.256;9.410;2023-04-24T13:24:50;12.20;1.00
13711;DHT22;6927;51.256;9.410;2023-04-24T13:27:16;12.30;19.20
13711;DHT22;6927;51.256;9.410;2023-04-24T13:29:42;12.30;23.00
13711;DHT22;6927;51.256;9.410;2023-04-24T13:32:08;12.40;15.20
13711;DHT22;6927;51.256;9.410;2023-04-24T13:34:34;12.10;1.00
13711;DHT22;6927;51.256;9.410;2023-04-24T13:37:00;12.00;1.00
13711;DHT22;6927;51.256;9.410;2023-04-24T13:39:26;12.00;1.00
13711;DHT22;6927;51.256;9.410;2023-04-24T13:41:53;12.20;1.00
13711;DHT22;6927;51.256;9.410;2023-04-24T13:44:19;12.30;1.00
13711;DHT22;6927;51.256;9.410;2023-04-24T13:46:47;12.30;1.00
13711;DHT22;6927;51.256;9.410;2023-04-24T13:49:14;12.00;1.00
13711;DHT22;6927;51.256;9.410;2023-04-24T13:51:39;11.80;1.00
13711;DHT22;6927;51.256;9.410;2023-04-24T13:54:05;11.70;1.00
13711;DHT22;6927;51.256;9.410;2023-04-24T13:56:50;11.60;1.00
13711;DHT22;6927;51.256;9.410;2023-04-24T13:59:37;11.50;1.00
13711;DHT22;6927;51.256;9.410;2023-04-24T14:02:06;11.30;1.00
13711;DHT22;6927;51.256;9.410;2023-04-24T14:04:32;11.30;1.00
13711;DHT22;6927;51.256;9.410;2023-04-24T14:06:57;11.30;1.00
13711;DHT22;6927;51.256;9.410;2023-04-24T14:09:23;11.40;1.00
13711;DHT22;6927;51.256;9.410;2023-04-24T14:11:48;11.50;1.00
13711;DHT22;6927;51.256;9.410;2023-04-24T14:14:14;11.40;1.00
13711;DHT22;6927;51.256;9.410;2023-04-24T14:16:40;11.30;1.00
13711;DHT22;6927;51.256;9.410;2023-04-24T14:19:05;11.30;1.00
13711;DHT22;6927;51.256;9.410;2023-04-24T14:21:32;11.20;23.20
13711;DHT22;6927;51.256;9.410;2023-04-24T14:23:57;11.20;1.00
13711;DHT22;6927;51.256;9.410;2023-04-24T14:26:23;11.10;1.00
13711;DHT22;6927;51.256;9.410;2023-04-24T14:28:49;11.10;1.00
13711;DHT22;6927;51.256;9.410;2023-04-24T14:31:15;10.90;1.00
13711;DHT22;6927;51.256;9.410;2023-04-24T14:33:41;10.70;99.90
13711;DHT22;6927;51.256;9.410;2023-04-24T14:36:07;10.80;99.90
13711;DHT22;6927;51.256;9.410;2023-04-24T14:38:32;11.00;99.90
13711;DHT22;6927;51.256;9.410;2023-04-24T14:40:58;11.30;95.40
13711;DHT22;6927;51.256;9.410;2023-04-24T14:43:23;11.70;1.00
13711;DHT22;6927;51.256;9.410;2023-04-24T14:45:49;12.10;1.00
13711;DHT22;6927;51.256;9.410;2023-04-24T14:48:15;12.20;31.40
13711;DHT22;6927;51.256;9.410;2023-04-24T14:50:41;12.10;19.90
13711;DHT22;6927;51.256;9.410;2023-04-24T14:53:07;11.90;30.90
13711;DHT22;6927;51.256;9.410;2023-04-24T14:55:32;11.70;1.00
13711;DHT22;6927;51.256;9.410;2023-04-24T14:57:59;11.50;1.00
13711;DHT22;6927;51.256;9.410;2023-04-24T15:00:25;11.70;1.00
13711;DHT22;6927;51.256;9.410;2023-04-24T15:02:50;11.90;1.00
13711;DHT22;6927;51.256;9.410;2023-04-24T15:05:16;12.00;18.90
13711;DHT22;6927;51.256;9.410;2023-04-24T15:07:42;12.10;24.50
13711;DHT22;6927;51.256;9.410;2023-04-24T15:10:08;12.00;1.00
13711;DHT22;6927;51.256;9.410;2023-04-24T15:12:34;12.30;1.00
13711;DHT22;6927;51.256;9.410;2023-04-24T15:14:59;12.60;1.00
13711;DHT22;6927;51.256;9.410;2023-04-24T15:17:26;12.90;1.00
13711;DHT22;6927;51.256;9.410;2023-04-24T15:19:52;12.70;1.00
13711;DHT22;6927;51.256;9.410;2023-04-24T15:22:17;12.50;1.00
13711;DHT22;6927;51.256;9.410;2023-04-24T15:24:43;12.20;1.00
13711;DHT22;6927;51.256;9.410;2023-04-24T15:27:10;12.00;1.00
13711;DHT22;6927;51.256;9.410;2023-04-24T15:29:37;12.10;1.00
13711;DHT22;6927;51.256;9.410;2023-04-24T15:32:03;12.00;1.00
13711;DHT22;6927;51.256;9.410;2023-04-24T15:34:28;12.10;1.00
13711;DHT22;6927;51.256;9.410;2023-04-24T15:36:54;12.10;1.00
13711;DHT22;6927;51.256;9.410;2023-04-24T15:39:23;12.10;1.00
13711;DHT22;6927;51.256;9.410;2023-04-24T15:41:49;11.80;1.00
13711;DHT22;6927;51.256;9.410;2023-04-24T15:44:15;11.60;1.00
13711;DHT22;6927;51.256;9.410;2023-04-24T15:46:41;11.40;1.00
13711;DHT22;6927;51.256;9.410;2023-04-24T15:49:06;11.30;1.00
13711;DHT22;6927;51.256;9.410;2023-04-24T15:51:32;11.30;1.00
13711;DHT22;6927;51.256;9.410;2023-04-24T15:53:57;11.20;1.00
13711;DHT22;6927;51.256;9.410;2023-04-24T15:56:23;11.20;1.00
13711;DHT22;6927;51.256;9.410;2023-04-24T15:58:49;11.30;1.00
13711;DHT22;6927;51.256;9.410;2023-04-24T16:01:14;11.30;1.00
13711;DHT22;6927;51.256;9.410;2023-04-24T16:03:40;11.30;1.00